Portada
METAR-TAF:

METAR-TAF

Aeroports :

Barcelona, Veneçuela

latitud: 10-07N, longitud: 064-41W, altitud: 7 m

METAR: manca

Hora: 16:18 (20:18 UTC)

Pronòstic

L'informe es va fer fa 4 hores i 18 minuts, a les 16:00 UTC
Pronòstic vàlid del 22 a les 18 UTC al 23 a les 18 UTC
Vent 12 kt del Est amb ràfegues de 35 kt
Visibilitat: 4000 m
Cel cobert a una alçada de 1300 ft
Probabilitat 40% :
Temporalment
l' 22 a les 18 UTC al 22 a les 22 UTC
Vent 15 kt del Est amb ràfegues de 40 kt
Visibilitat: 4000 m

TAF: SVBC 221600Z 2218/2318 09012G35KT 4000 +TSSHRA SCT010BC(N) OVC013 TX26/18Z TN22/06Z PROB40 TEMPO 2218/2222 09015G40KT 4000 +TSSHRA SCT010CB(N) OCV013

Observacions i pronòstics meteorològics de més de 4000 aeroports (METAR i TAF).

Les estacions disponibles són els punts grocs i vermells al mapa.

Posi el ratolí al punt desitjat per veure el nom de l'estació.

Feu clic per veure les observacions i els pronòstics meteorològics.

Per canviar el mapa: feu clic els botons verds amb una creu de color negre per apropar; al botó verd amb un guió per allunyar la imatge; o en les fletxes verdes per a mapes adjacents.


METAR-TAF: